Time;durP1;ratioP1;P1;durP2;ratioP2;P2;SDS_P1;SDS_P2;PMS_P1;PMS_P2;Temp;Humidity;BMP_temperature;BMP_pressure;BME280_temperature;BME280_humidity;BME280_pressure;Samples;Min_cycle;Max_cycle;Signal;HPM_P1;HPM_P2
2021/03/07 00:00:47;;;;;;;5.78;1.42;;;;;6.40;102789.00;;;;5084931;28;20195;-78
2021/03/07 00:03:15;;;;;;;4.32;2.13;;;;;6.40;102793.00;;;;5090208;28;20202;-78
2021/03/07 00:05:42;;;;;;;4.10;1.80;;;;;6.40;102796.00;;;;5082140;28;20199;-78
2021/03/07 00:08:08;;;;;;;3.50;1.55;;;;;6.40;102804.00;;;;5089830;28;20204;-78
2021/03/07 00:10:35;;;;;;;3.92;1.92;;;;;6.40;102793.00;;;;5089193;28;20733;-78
2021/03/07 00:13:02;;;;;;;6.80;2.13;;;;;6.40;102799.00;;;;5086341;28;20192;-78
2021/03/07 00:15:29;;;;;;;3.53;1.90;;;;;6.40;102788.00;;;;5083484;28;20656;-78
2021/03/07 00:17:55;;;;;;;2.75;1.65;;;;;6.40;102795.00;;;;5072814;28;20226;-78
2021/03/07 00:20:24;;;;;;;3.40;2.25;;;;;6.40;102791.00;;;;5084424;28;20194;-78
2021/03/07 00:22:51;;;;;;;3.55;2.30;;;;;6.40;102795.00;;;;5090078;28;20287;-78
2021/03/07 00:25:19;;;;;;;4.50;1.40;;;;;6.30;102795.00;;;;5085784;28;20206;-78
2021/03/07 00:27:46;;;;;;;3.15;1.77;;;;;6.30;102788.00;;;;5087836;28;20231;-78
2021/03/07 00:30:17;;;;;;;4.93;2.10;;;;;6.30;102793.00;;;;5086070;28;20210;-78
2021/03/07 00:32:44;;;;;;;3.15;1.65;;;;;6.30;102791.00;;;;5086027;28;20206;-78
2021/03/07 00:35:12;;;;;;;2.42;1.58;;;;;6.30;102782.00;;;;5085386;28;20194;-78
2021/03/07 00:37:40;;;;;;;4.38;1.65;;;;;6.30;102785.00;;;;5089849;28;20218;-78
2021/03/07 00:40:09;;;;;;;2.92;1.98;;;;;6.20;102780.00;;;;5087805;28;20198;-78
2021/03/07 00:42:37;;;;;;;3.90;1.77;;;;;6.20;102783.00;;;;5083720;28;20571;-78
2021/03/07 00:45:06;;;;;;;3.08;1.40;;;;;6.20;102781.00;;;;5077814;28;20194;-78
2021/03/07 00:47:33;;;;;;;3.63;1.85;;;;;6.20;102778.00;;;;5089291;28;20222;-78
2021/03/07 00:49:59;;;;;;;3.33;1.20;;;;;6.20;102781.00;;;;5084716;28;20206;-78
2021/03/07 00:52:26;;;;;;;3.15;1.67;;;;;6.20;102789.00;;;;5069645;28;20198;-78
2021/03/07 00:54:53;;;;;;;1.65;1.13;;;;;6.10;102788.00;;;;5076307;28;20210;-78
2021/03/07 00:57:20;;;;;;;1.58;1.15;;;;;6.10;102788.00;;;;5083456;28;20696;-78
2021/03/07 00:59:47;;;;;;;2.15;1.20;;;;;6.10;102782.00;;;;5080487;28;20203;-78
2021/03/07 01:02:14;;;;;;;2.75;1.25;;;;;6.10;102777.00;;;;5089217;28;20194;-78
2021/03/07 01:04:40;;;;;;;1.98;1.17;;;;;6.00;102780.00;;;;5087622;28;20195;-78
2021/03/07 01:07:07;;;;;;;2.95;1.30;;;;;6.00;102778.00;;;;5088526;28;20197;-78
2021/03/07 01:09:34;;;;;;;2.88;1.30;;;;;6.00;102776.00;;;;5087335;28;20186;-78
2021/03/07 01:12:01;;;;;;;2.65;1.23;;;;;6.00;102780.00;;;;5088156;28;20197;-78
2021/03/07 01:14:28;;;;;;;2.00;1.13;;;;;6.00;102769.00;;;;5086234;28;20245;-78
2021/03/07 01:16:55;;;;;;;2.42;1.45;;;;;6.00;102770.00;;;;5089277;28;20588;-78
2021/03/07 01:19:22;;;;;;;2.47;1.55;;;;;5.90;102767.00;;;;5085363;28;20646;-78
2021/03/07 01:21:49;;;;;;;3.80;1.30;;;;;5.90;102760.00;;;;5075528;28;20599;-78
2021/03/07 01:24:15;;;;;;;2.03;1.23;;;;;5.90;102768.00;;;;5078627;28;20676;-78
2021/03/07 01:26:42;;;;;;;1.60;0.98;;;;;5.90;102753.00;;;;5070096;28;20244;-78
2021/03/07 01:29:10;;;;;;;1.52;0.90;;;;;5.80;102749.00;;;;5071985;28;20198;-79
2021/03/07 01:31:36;;;;;;;3.38;1.17;;;;;5.80;102761.00;;;;5087622;28;20202;-78
2021/03/07 01:34:03;;;;;;;1.85;1.45;;;;;5.80;102757.00;;;;5086598;28;20191;-78
2021/03/07 01:36:30;;;;;;;4.88;1.95;;;;;5.80;102753.00;;;;5087119;28;20253;-78
2021/03/07 01:38:56;;;;;;;1.83;0.93;;;;;5.80;102748.00;;;;5070410;28;20203;-78
2021/03/07 01:41:25;;;;;;;2.28;0.82;;;;;5.80;102739.00;;;;5079742;28;20202;-78
2021/03/07 01:43:52;;;;;;;1.77;1.08;;;;;5.70;102728.00;;;;5068536;28;20517;-78
2021/03/07 01:46:20;;;;;;;2.50;1.00;;;;;5.70;102732.00;;;;5088013;28;20226;-78
2021/03/07 01:48:49;;;;;;;1.58;0.90;;;;;5.70;102723.00;;;;5086041;28;20235;-78
2021/03/07 01:51:16;;;;;;;2.25;1.27;;;;;5.70;102724.00;;;;5079405;28;20190;-78
2021/03/07 01:53:43;;;;;;;3.38;1.13;;;;;5.70;102720.00;;;;5072908;28;20212;-78
2021/03/07 01:56:13;;;;;;;1.92;0.93;;;;;5.60;102719.00;;;;5071347;28;20210;-78
2021/03/07 01:58:43;;;;;;;3.42;1.30;;;;;5.60;102715.00;;;;5085938;28;20191;-77
2021/03/07 02:01:09;;;;;;;3.00;1.17;;;;;5.60;102714.00;;;;5086937;28;20236;-77
2021/03/07 02:03:48;;;;;;;2.50;1.02;;;;;5.60;102706.00;;;;5087052;28;20201;-77
2021/03/07 02:06:15;;;;;;;1.58;1.02;;;;;5.60;102702.00;;;;5084456;28;20509;-77
2021/03/07 02:08:41;;;;;;;5.28;1.17;;;;;5.60;102694.00;;;;5086780;28;20749;-77
2021/03/07 02:11:08;;;;;;;3.60;1.27;;;;;5.60;102694.00;;;;5082267;28;20236;-78
2021/03/07 02:13:37;;;;;;;3.53;0.90;;;;;5.60;102691.00;;;;5088291;28;20198;-77
2021/03/07 02:16:06;;;;;;;2.13;1.05;;;;;5.50;102695.00;;;;5085406;28;20669;-77
2021/03/07 02:18:35;;;;;;;1.30;1.10;;;;;5.50;102683.00;;;;5082104;28;20244;-77
2021/03/07 02:21:06;;;;;;;1.80;0.80;;;;;5.50;102681.00;;;;5085631;28;20275;-78
2021/03/07 02:23:39;;;;;;;2.72;0.80;;;;;5.50;102673.00;;;;5088226;28;20271;-77
2021/03/07 02:26:06;;;;;;;1.25;0.82;;;;;5.50;102673.00;;;;5086461;28;20193;-78
2021/03/07 02:28:33;;;;;;;1.35;0.88;;;;;5.50;102664.00;;;;5069847;28;20961;-77
2021/03/07 02:31:00;;;;;;;3.35;1.00;;;;;5.50;102667.00;;;;5086489;28;20573;-77
2021/03/07 02:33:31;;;;;;;1.70;0.90;;;;;5.40;102658.00;;;;5088488;28;20194;-77
2021/03/07 02:36:03;;;;;;;1.90;0.80;;;;;5.40;102654.00;;;;5085997;28;20197;-77
2021/03/07 02:38:33;;;;;;;4.25;0.90;;;;;5.40;102647.00;;;;5085812;28;20263;-77
2021/03/07 02:41:00;;;;;;;1.92;1.30;;;;;5.40;102653.00;;;;5086470;28;20227;-77
2021/03/07 02:43:34;;;;;;;3.17;1.05;;;;;5.40;102656.00;;;;5088516;28;20198;-78
2021/03/07 02:46:02;;;;;;;1.05;0.65;;;;;5.40;102654.00;;;;5076623;28;20233;-78
2021/03/07 02:48:29;;;;;;;2.05;1.20;;;;;5.40;102651.00;;;;5076425;28;20210;-77
2021/03/07 02:50:58;;;;;;;1.77;1.02;;;;;5.30;102650.00;;;;5076466;28;20199;-77
2021/03/07 02:53:28;;;;;;;2.65;1.13;;;;;5.30;102646.00;;;;5074707;28;20194;-77
2021/03/07 02:55:58;;;;;;;1.17;0.77;;;;;5.30;102652.00;;;;5074064;28;20195;-77
2021/03/07 02:58:25;;;;;;;1.60;1.10;;;;;5.30;102638.00;;;;5075806;28;20225;-77
2021/03/07 03:00:58;;;;;;;1.63;0.90;;;;;5.20;102638.00;;;;5078604;28;20198;-77
2021/03/07 03:03:31;;;;;;;1.92;1.08;;;;;5.30;102632.00;;;;5079092;28;20187;-77
2021/03/07 03:05:59;;;;;;;1.58;0.80;;;;;5.20;102629.00;;;;5077857;28;20680;-77
2021/03/07 03:08:27;;;;;;;3.08;1.10;;;;;5.20;102627.00;;;;5089414;28;20218;-77
2021/03/07 03:10:55;;;;;;;1.67;0.90;;;;;5.20;102629.00;;;;5091485;28;20202;-77
2021/03/07 03:13:22;;;;;;;1.33;0.77;;;;;5.20;102625.00;;;;5091854;28;20194;-77
2021/03/07 03:15:50;;;;;;;0.93;0.70;;;;;5.20;102628.00;;;;5091330;28;20203;-77
2021/03/07 03:18:19;;;;;;;1.95;1.23;;;;;5.20;102625.00;;;;5088998;28;20529;-77
2021/03/07 03:20:47;;;;;;;1.15;0.90;;;;;5.20;102626.00;;;;5089015;28;20207;-77
2021/03/07 03:23:14;;;;;;;2.20;1.13;;;;;5.10;102625.00;;;;5091089;28;20217;-77
2021/03/07 03:25:41;;;;;;;1.55;0.88;;;;;5.10;102631.00;;;;5081503;28;20195;-77
2021/03/07 03:28:08;;;;;;;4.00;0.80;;;;;5.10;102633.00;;;;5085036;28;20198;-77
2021/03/07 03:30:35;;;;;;;2.75;1.30;;;;;5.10;102626.00;;;;5091245;28;20198;-77
2021/03/07 03:33:04;;;;;;;5.55;1.23;;;;;5.10;102617.00;;;;5080157;28;20660;-77
2021/03/07 03:35:32;;;;;;;1.48;1.08;;;;;5.10;102619.00;;;;5088192;28;20664;-76
2021/03/07 03:37:58;;;;;;;1.88;1.05;;;;;5.10;102615.00;;;;5090448;28;20699;-77
2021/03/07 03:40:27;;;;;;;1.52;0.98;;;;;5.10;102629.00;;;;5078513;28;20207;-77
2021/03/07 03:42:59;;;;;;;1.83;1.17;;;;;5.10;102619.00;;;;5088550;28;20199;-77
2021/03/07 03:45:26;;;;;;;1.23;0.98;;;;;5.10;102624.00;;;;5083575;28;20206;-77
2021/03/07 03:47:57;;;;;;;1.13;0.70;;;;;5.10;102611.00;;;;5091037;28;20549;-77
2021/03/07 03:50:27;;;;;;;4.20;1.10;;;;;5.10;102613.00;;;;5080419;28;20218;-77
2021/03/07 03:52:55;;;;;;;2.85;1.05;;;;;5.20;102617.00;;;;5072313;28;20202;-77
2021/03/07 03:55:24;;;;;;;1.63;1.08;;;;;5.20;102602.00;;;;5088350;28;20835;-76
2021/03/07 03:57:55;;;;;;;2.97;1.15;;;;;5.20;102610.00;;;;5077240;28;20218;-77
2021/03/07 04:00:25;;;;;;;2.80;1.00;;;;;5.20;102607.00;;;;5081486;28;20198;-77
2021/03/07 04:02:54;;;;;;;5.00;1.30;;;;;5.30;102604.00;;;;5090266;28;20407;-77
2021/03/07 04:05:23;;;;;;;1.45;1.05;;;;;5.30;102601.00;;;;5089881;28;20674;-77
2021/03/07 04:07:51;;;;;;;1.60;0.88;;;;;5.30;102613.00;;;;5088952;28;20570;-76
2021/03/07 04:10:20;;;;;;;1.80;0.98;;;;;5.40;102611.00;;;;5090729;28;20583;-77
2021/03/07 04:12:49;;;;;;;3.13;1.00;;;;;5.40;102607.00;;;;5070695;28;20621;-77
2021/03/07 04:15:20;;;;;;;0.85;0.75;;;;;5.40;102608.00;;;;5089573;28;20198;-77
2021/03/07 04:17:50;;;;;;;1.38;0.68;;;;;5.50;102613.00;;;;5083688;28;20278;-77
2021/03/07 04:20:18;;;;;;;1.95;0.80;;;;;5.50;102607.00;;;;5089095;28;20198;-77
2021/03/07 04:22:48;;;;;;;1.98;1.10;;;;;5.60;102609.00;;;;5074472;28;20202;-77
2021/03/07 04:25:15;;;;;;;1.85;1.05;;;;;5.60;102611.00;;;;5090177;28;20262;-77
2021/03/07 04:27:44;;;;;;;3.05;1.25;;;;;5.60;102597.00;;;;5087944;28;20186;-77
2021/03/07 04:30:12;;;;;;;2.08;1.15;;;;;5.70;102603.00;;;;5089403;28;20193;-77
2021/03/07 04:32:39;;;;;;;1.80;0.98;;;;;5.80;102603.00;;;;5090569;28;20205;-77
2021/03/07 04:35:08;;;;;;;2.20;1.15;;;;;5.80;102607.00;;;;5088885;28;20198;-76
2021/03/07 04:37:35;;;;;;;2.03;1.08;;;;;5.80;102603.00;;;;5079348;28;20279;-77
2021/03/07 04:40:02;;;;;;;1.65;1.00;;;;;5.90;102607.00;;;;5083465;28;20194;-77
2021/03/07 04:42:29;;;;;;;2.22;1.08;;;;;5.90;102607.00;;;;5082729;28;20213;-77
2021/03/07 04:44:57;;;;;;;1.50;0.85;;;;;6.00;102597.00;;;;5075874;28;20195;-76
2021/03/07 04:47:23;;;;;;;2.95;1.40;;;;;6.00;102599.00;;;;5089852;28;20599;-77
2021/03/07 04:49:50;;;;;;;1.67;1.00;;;;;6.10;102596.00;;;;5086261;28;20201;-77
2021/03/07 04:52:17;;;;;;;2.90;1.10;;;;;6.10;102600.00;;;;5075402;28;20566;-77
2021/03/07 04:54:44;;;;;;;2.83;1.38;;;;;6.20;102604.00;;;;5076500;28;20214;-77
2021/03/07 04:57:11;;;;;;;1.58;1.00;;;;;6.20;102602.00;;;;5089422;28;20249;-77
2021/03/07 04:59:37;;;;;;;5.18;1.25;;;;;6.20;102594.00;;;;5088486;28;20636;-77
2021/03/07 05:02:05;;;;;;;3.13;1.20;;;;;6.30;102600.00;;;;5089160;28;20194;-77
2021/03/07 05:04:32;;;;;;;1.83;1.02;;;;;6.30;102608.00;;;;5087333;28;20190;-77
2021/03/07 05:07:01;;;;;;;3.72;1.25;;;;;6.30;102607.00;;;;5086133;28;20206;-77
2021/03/07 05:09:28;;;;;;;2.05;1.17;;;;;6.40;102600.00;;;;5087773;28;20199;-77
2021/03/07 05:11:55;;;;;;;1.42;1.17;;;;;6.40;102600.00;;;;5089257;28;20774;-77
2021/03/07 05:14:22;;;;;;;2.22;1.33;;;;;6.50;102589.00;;;;5084046;28;20199;-77
2021/03/07 05:16:49;;;;;;;1.27;0.82;;;;;6.50;102593.00;;;;5087727;28;20308;-77
2021/03/07 05:19:16;;;;;;;4.63;1.33;;;;;6.50;102589.00;;;;5085121;28;20195;-77
2021/03/07 05:21:43;;;;;;;2.40;1.02;;;;;6.60;102587.00;;;;5076311;28;20210;-77
2021/03/07 05:24:10;;;;;;;1.77;1.00;;;;;6.60;102582.00;;;;5079632;28;20358;-77
2021/03/07 05:26:37;;;;;;;3.08;0.82;;;;;6.60;102588.00;;;;5078035;28;20191;-77
2021/03/07 05:29:03;;;;;;;3.35;1.20;;;;;6.70;102595.00;;;;5078444;28;20217;-77
2021/03/07 05:31:30;;;;;;;1.77;1.17;;;;;6.70;102590.00;;;;5084275;28;20723;-77
2021/03/07 05:33:57;;;;;;;1.50;1.00;;;;;6.70;102587.00;;;;5087714;28;20202;-77
2021/03/07 05:36:25;;;;;;;2.25;1.25;;;;;6.70;102588.00;;;;5088128;28;20194;-77
2021/03/07 05:38:52;;;;;;;1.83;1.08;;;;;6.80;102589.00;;;;5088224;28;20336;-77
2021/03/07 05:41:19;;;;;;;3.33;1.17;;;;;6.80;102580.00;;;;5085572;28;20609;-77
2021/03/07 05:43:48;;;;;;;2.90;0.88;;;;;6.80;102580.00;;;;5083884;28;20568;-77
2021/03/07 05:46:16;;;;;;;1.63;1.10;;;;;6.80;102586.00;;;;5088233;28;20256;-77
2021/03/07 05:48:43;;;;;;;3.08;1.10;;;;;6.90;102580.00;;;;5087077;28;20194;-77
2021/03/07 05:51:12;;;;;;;1.90;1.00;;;;;6.90;102586.00;;;;5079835;28;20186;-77
2021/03/07 05:53:41;;;;;;;2.20;1.30;;;;;6.90;102580.00;;;;5081990;28;20282;-77
2021/03/07 05:56:10;;;;;;;2.55;1.10;;;;;6.90;102591.00;;;;5077752;28;20194;-77
2021/03/07 05:58:39;;;;;;;2.85;1.20;;;;;7.00;102582.00;;;;5084829;28;20222;-77
2021/03/07 06:01:06;;;;;;;2.20;1.13;;;;;7.00;102586.00;;;;5078649;28;20198;-77
2021/03/07 06:03:33;;;;;;;2.10;1.05;;;;;7.00;102575.00;;;;5082812;28;20203;-76
2021/03/07 06:06:00;;;;;;;2.88;1.23;;;;;7.00;102577.00;;;;5074179;28;20255;-76
2021/03/07 06:08:26;;;;;;;2.17;1.10;;;;;7.10;102570.00;;;;5079628;28;20206;-77
2021/03/07 06:10:54;;;;;;;3.55;1.48;;;;;7.10;102577.00;;;;5076641;28;20202;-77
2021/03/07 06:13:21;;;;;;;1.65;1.10;;;;;7.10;102566.00;;;;5076456;28;20383;-77
2021/03/07 06:15:49;;;;;;;2.03;1.27;;;;;7.10;102565.00;;;;5076216;28;20381;-77
2021/03/07 06:18:17;;;;;;;1.88;1.27;;;;;7.20;102571.00;;;;5078296;28;20239;-77
2021/03/07 06:20:45;;;;;;;2.70;1.38;;;;;7.20;102557.00;;;;5075260;28;20199;-77
2021/03/07 06:23:12;;;;;;;3.10;1.40;;;;;7.20;102559.00;;;;5074777;28;20624;-77
2021/03/07 06:25:47;;;;;;;2.08;1.58;;;;;7.20;102561.00;;;;5079615;28;20206;-77
2021/03/07 06:28:22;;;;;;;2.60;1.30;;;;;7.20;102555.00;;;;5080812;28;20738;-77
2021/03/07 06:30:50;;;;;;;2.20;1.23;;;;;7.30;102550.00;;;;5086467;28;20372;-77
2021/03/07 06:33:31;;;;;;;2.08;1.40;;;;;7.20;102548.00;;;;5082590;28;20190;-77
2021/03/07 06:36:18;;;;;;;2.67;1.10;;;;;7.20;102548.00;;;;5083119;28;20201;-78
2021/03/07 06:38:46;;;;;;;3.00;1.60;;;;;7.30;102546.00;;;;5087135;28;20600;-78
2021/03/07 06:41:18;;;;;;;1.88;1.20;;;;;7.30;102545.00;;;;5087383;28;20202;-79
2021/03/07 06:43:46;;;;;;;2.85;1.55;;;;;7.40;102551.00;;;;5092089;28;20683;-78
2021/03/07 06:46:32;;;;;;;3.15;1.33;;;;;7.40;102543.00;;;;5082761;28;20735;-79
2021/03/07 06:48:59;;;;;;;2.17;1.40;;;;;7.50;102544.00;;;;5089488;28;20202;-79
2021/03/07 06:51:28;;;;;;;2.17;1.30;;;;;7.50;102545.00;;;;5083166;28;20194;-78
2021/03/07 06:53:57;;;;;;;2.13;1.52;;;;;7.50;102547.00;;;;5083058;28;20672;-79
2021/03/07 06:56:40;;;;;;;2.97;1.67;;;;;7.50;102548.00;;;;5092124;28;20202;-76
2021/03/07 06:59:16;;;;;;;4.00;1.65;;;;;7.60;102545.00;;;;5084271;28;20202;-77
2021/03/07 07:01:44;;;;;;;2.80;1.67;;;;;7.70;102551.00;;;;5085544;28;20608;-77
2021/03/07 07:04:12;;;;;;;1.55;1.20;;;;;7.70;102552.00;;;;5088968;28;20191;-77
2021/03/07 07:06:39;;;;;;;3.53;2.08;;;;;7.80;102551.00;;;;5081505;28;20703;-77
2021/03/07 07:09:07;;;;;;;3.30;1.90;;;;;7.80;102548.00;;;;5085368;28;20202;-77
2021/03/07 07:11:45;;;;;;;2.38;1.50;;;;;7.80;102546.00;;;;5079441;28;20194;-76
2021/03/07 07:14:13;;;;;;;3.00;1.70;;;;;7.90;102552.00;;;;5082804;28;20193;-77
2021/03/07 07:16:41;;;;;;;2.78;1.23;;;;;7.90;102544.00;;;;5089757;28;20205;-77
2021/03/07 07:19:08;;;;;;;3.30;1.42;;;;;8.00;102544.00;;;;5080019;28;20191;-77
2021/03/07 07:21:34;;;;;;;2.65;1.48;;;;;8.00;102543.00;;;;5091102;28;20205;-77
2021/03/07 07:24:01;;;;;;;2.58;1.67;;;;;8.10;102542.00;;;;5090138;28;20218;-77
2021/03/07 07:26:28;;;;;;;2.78;1.65;;;;;8.10;102547.00;;;;5092065;28;20198;-76
2021/03/07 07:28:55;;;;;;;3.53;1.83;;;;;8.10;102554.00;;;;5089438;28;20206;-76
2021/03/07 07:31:31;;;;;;;3.53;1.20;;;;;8.20;102540.00;;;;5075876;28;20203;-76
2021/03/07 07:34:03;;;;;;;1.83;1.35;;;;;8.20;102552.00;;;;5079310;28;20197;-76
2021/03/07 07:36:36;;;;;;;3.78;1.88;;;;;8.30;102548.00;;;;5079908;28;20187;-76
2021/03/07 07:39:06;;;;;;;5.15;1.50;;;;;8.30;102551.00;;;;5080661;28;20234;-76
2021/03/07 07:41:35;;;;;;;3.85;1.75;;;;;8.40;102555.00;;;;5080462;28;20251;-77
2021/03/07 07:44:04;;;;;;;2.78;1.70;;;;;8.40;102545.00;;;;5089486;28;20203;-77
2021/03/07 07:46:32;;;;;;;3.08;1.65;;;;;8.50;102551.00;;;;5088034;28;20226;-77
2021/03/07 07:49:00;;;;;;;2.47;1.60;;;;;8.60;102542.00;;;;5091204;28;20199;-77
2021/03/07 07:51:32;;;;;;;1.77;1.30;;;;;8.60;102543.00;;;;5088617;28;20667;-78
2021/03/07 07:53:59;;;;;;;2.03;1.30;;;;;8.70;102547.00;;;;5089210;28;20221;-75
2021/03/07 07:56:41;;;;;;;3.05;1.98;;;;;8.70;102536.00;;;;5089548;28;20194;-76
2021/03/07 07:59:09;;;;;;;3.63;1.90;;;;;8.80;102545.00;;;;5090193;28;20210;-75
2021/03/07 08:01:53;;;;;;;2.40;1.90;;;;;8.80;102547.00;;;;5086555;28;20597;-76
2021/03/07 08:04:37;;;;;;;3.50;1.58;;;;;8.90;102542.00;;;;5071079;28;20672;-75
2021/03/07 08:07:06;;;;;;;3.83;1.85;;;;;9.00;102539.00;;;;5087111;28;20194;-76
2021/03/07 08:09:41;;;;;;;2.78;1.95;;;;;9.10;102539.00;;;;5082884;28;20222;-77
2021/03/07 08:12:46;;;;;;;2.38;1.50;;;;;9.10;102546.00;;;;5085895;28;20202;-78
2021/03/07 08:15:47;;;;;;;2.55;1.65;;;;;9.20;102544.00;;;;5083872;28;20590;-78
2021/03/07 08:18:17;;;;;;;2.80;1.67;;;;;9.30;102544.00;;;;5083459;28;20235;-78
2021/03/07 08:21:04;;;;;;;3.05;1.85;;;;;9.30;102538.00;;;;5083679;28;20194;-78
2021/03/07 08:23:51;;;;;;;2.22;1.70;;;;;9.50;102540.00;;;;5088883;28;20228;-78
2021/03/07 08:26:17;;;;;;;2.65;1.63;;;;;9.60;102541.00;;;;5080321;28;20623;-78
2021/03/07 08:28:45;;;;;;;2.42;1.90;;;;;9.60;102541.00;;;;5080775;28;20286;-79
2021/03/07 08:31:34;;;;;;;2.70;2.00;;;;;9.70;102544.00;;;;5079262;28;22126;-79
2021/03/07 08:34:22;;;;;;;3.42;2.20;;;;;9.80;102542.00;;;;5078206;28;20202;-78
2021/03/07 08:36:53;;;;;;;4.18;2.20;;;;;9.90;102539.00;;;;5074113;28;21016;-78
2021/03/07 08:39:20;;;;;;;5.75;2.95;;;;;10.00;102542.00;;;;5077680;28;20205;-78
2021/03/07 08:41:59;;;;;;;4.30;3.10;;;;;10.10;102537.00;;;;5077242;28;20203;-78
2021/03/07 08:44:27;;;;;;;4.82;2.70;;;;;10.20;102544.00;;;;5085999;28;20233;-78
2021/03/07 08:46:54;;;;;;;3.80;2.75;;;;;10.30;102536.00;;;;5079397;28;20226;-78
2021/03/07 08:49:24;;;;;;;3.08;1.95;;;;;10.40;102534.00;;;;5073987;28;20194;-77
2021/03/07 08:51:52;;;;;;;5.13;3.17;;;;;10.50;102529.00;;;;5079762;28;20190;-78
2021/03/07 08:54:21;;;;;;;4.60;2.75;;;;;10.60;102531.00;;;;5087745;28;20190;-78
2021/03/07 08:56:50;;;;;;;4.05;2.47;;;;;10.70;102532.00;;;;5080870;28;21117;-77
2021/03/07 08:59:17;;;;;;;4.72;2.95;;;;;10.80;102526.00;;;;5088836;28;20206;-78
2021/03/07 09:01:49;;;;;;;5.43;3.08;;;;;10.80;102520.00;;;;5080174;28;20213;-78
2021/03/07 09:04:16;;;;;;;4.28;2.67;;;;;10.90;102521.00;;;;5075637;28;20228;-78
2021/03/07 09:06:45;;;;;;;6.50;3.58;;;;;11.00;102515.00;;;;5070615;28;20195;-78
2021/03/07 09:09:15;;;;;;;4.68;3.45;;;;;11.10;102514.00;;;;5076192;28;20209;-78
2021/03/07 09:11:47;;;;;;;5.10;3.63;;;;;11.20;102516.00;;;;5086418;28;20205;-78
2021/03/07 09:14:14;;;;;;;4.78;3.40;;;;;11.30;102519.00;;;;5087494;28;20639;-78
2021/03/07 09:16:44;;;;;;;4.65;3.47;;;;;11.40;102506.00;;;;5080419;28;20191;-77
2021/03/07 09:19:21;;;;;;;4.07;3.17;;;;;11.50;102512.00;;;;5088339;28;20221;-78
2021/03/07 09:22:04;;;;;;;8.07;4.30;;;;;11.60;102512.00;;;;5084069;28;20611;-78
2021/03/07 09:24:30;;;;;;;6.22;4.55;;;;;11.70;102504.00;;;;5082678;28;20217;-77
2021/03/07 09:27:08;;;;;;;6.65;3.90;;;;;11.70;102504.00;;;;5082549;28;20198;-77
2021/03/07 09:29:35;;;;;;;7.13;4.05;;;;;11.90;102510.00;;;;5077926;28;20296;-77
2021/03/07 09:32:02;;;;;;;6.07;4.68;;;;;12.00;102505.00;;;;5073420;28;20194;-76
2021/03/07 09:34:32;;;;;;;4.93;4.43;;;;;12.10;102508.00;;;;5071688;28;20198;-76
2021/03/07 09:37:00;;;;;;;4.50;3.90;;;;;12.20;102506.00;;;;5072084;28;20293;-76
2021/03/07 09:39:26;;;;;;;5.40;4.35;;;;;12.30;102512.00;;;;5077882;28;20203;-78
2021/03/07 09:41:53;;;;;;;4.68;4.13;;;;;12.40;102514.00;;;;5069907;28;20195;-78
2021/03/07 09:44:23;;;;;;;4.05;3.50;;;;;12.40;102507.00;;;;5085752;28;20233;-78
2021/03/07 09:46:52;;;;;;;5.72;3.63;;;;;12.40;102507.00;;;;5085258;28;20234;-78
2021/03/07 09:49:22;;;;;;;3.88;3.33;;;;;12.50;102515.00;;;;5088690;28;20580;-78
2021/03/07 09:51:50;;;;;;;5.32;4.05;;;;;12.60;102511.00;;;;5078551;28;20830;-77
2021/03/07 09:54:18;;;;;;;5.50;4.05;;;;;12.60;102511.00;;;;5071922;28;20202;-77
2021/03/07 09:56:47;;;;;;;4.85;4.25;;;;;12.70;102516.00;;;;5088235;28;20204;-77
2021/03/07 09:59:17;;;;;;;5.70;4.70;;;;;12.80;102513.00;;;;5082552;28;20222;-77
2021/03/07 10:01:46;;;;;;;4.55;3.75;;;;;12.80;102519.00;;;;5088176;28;20209;-77
2021/03/07 10:04:27;;;;;;;3.40;3.08;;;;;12.80;102520.00;;;;5086913;28;20190;-76
2021/03/07 10:06:54;;;;;;;5.28;3.63;;;;;13.00;102515.00;;;;5087213;28;20703;-78
2021/03/07 10:09:21;;;;;;;3.83;3.30;;;;;13.00;102509.00;;;;5086824;28;20583;-78
2021/03/07 10:12:00;;;;;;;6.20;4.35;;;;;13.00;102516.00;;;;5070911;28;20993;-77
2021/03/07 10:14:29;;;;;;;3.80;3.30;;;;;13.20;102510.00;;;;5072824;28;20202;-76
2021/03/07 10:16:57;;;;;;;4.65;3.70;;;;;13.20;102505.00;;;;5084532;28;20209;-77
2021/03/07 10:19:33;;;;;;;5.57;3.80;;;;;13.30;102504.00;;;;5080950;28;20600;-77
2021/03/07 10:22:02;;;;;;;3.65;3.10;;;;;13.30;102495.00;;;;5080032;28;20240;-78
2021/03/07 10:24:31;;;;;;;3.17;2.80;;;;;13.40;102492.00;;;;5074981;28;20226;-77
2021/03/07 10:27:02;;;;;;;4.53;3.58;;;;;13.40;102498.00;;;;5079905;28;20202;-77
2021/03/07 10:29:31;;;;;;;4.88;3.72;;;;;13.50;102491.00;;;;5086384;28;20226;-77
2021/03/07 10:32:00;;;;;;;3.42;2.67;;;;;13.60;102492.00;;;;5081588;28;20209;-77
2021/03/07 10:34:35;;;;;;;3.55;2.92;;;;;13.50;102485.00;;;;5087548;28;20698;-76
2021/03/07 10:37:02;;;;;;;4.70;2.55;;;;;13.60;102484.00;;;;5087937;28;20205;-77
2021/03/07 10:39:30;;;;;;;4.57;3.53;;;;;13.60;102483.00;;;;5086349;28;20205;-76
2021/03/07 10:42:11;;;;;;;3.67;2.30;;;;;13.50;102476.00;;;;5087452;28;20690;-77
2021/03/07 10:44:40;;;;;;;2.90;1.80;;;;;13.60;102476.00;;;;5088718;28;20213;-76
2021/03/07 10:47:15;;;;;;;4.85;3.58;;;;;13.50;102466.00;;;;5083342;28;20455;-76
2021/03/07 10:49:42;;;;;;;2.55;1.83;;;;;13.80;102482.00;;;;5085015;28;20212;-76
2021/03/07 10:52:08;;;;;;;2.47;1.80;;;;;13.80;102481.00;;;;5086625;28;20199;-77
2021/03/07 10:54:38;;;;;;;2.53;1.88;;;;;13.80;102473.00;;;;5087355;28;20283;-77
2021/03/07 10:57:07;;;;;;;2.88;1.85;;;;;13.80;102469.00;;;;5085754;28;20205;-78
2021/03/07 10:59:34;;;;;;;2.60;1.75;;;;;13.80;102460.00;;;;5087953;28;20217;-76
2021/03/07 11:02:01;;;;;;;2.22;1.40;;;;;13.70;102465.00;;;;5085623;28;20564;-76
2021/03/07 11:04:28;;;;;;;1.80;1.58;;;;;13.70;102480.00;;;;5086392;28;20194;-76
2021/03/07 11:06:54;;;;;;;2.67;1.40;;;;;13.60;102472.00;;;;5088597;28;20583;-76
2021/03/07 11:09:21;;;;;;;2.17;1.58;;;;;13.60;102477.00;;;;5088998;28;20194;-75
2021/03/07 11:11:49;;;;;;;2.25;1.95;;;;;13.60;102475.00;;;;5087059;28;20556;-76
2021/03/07 11:14:15;;;;;;;1.85;1.63;;;;;13.60;102470.00;;;;5083134;28;20199;-76
2021/03/07 11:16:42;;;;;;;3.13;1.92;;;;;13.60;102472.00;;;;5069295;28;20195;-75
2021/03/07 11:19:09;;;;;;;2.55;2.00;;;;;13.60;102477.00;;;;5085347;28;20225;-76
2021/03/07 11:21:36;;;;;;;2.33;1.85;;;;;13.60;102462.00;;;;5088117;28;20217;-75
2021/03/07 11:24:03;;;;;;;3.40;1.88;;;;;13.60;102465.00;;;;5081186;28;20211;-75
2021/03/07 11:26:30;;;;;;;3.05;1.67;;;;;13.60;102469.00;;;;5085782;28;20741;-75
2021/03/07 11:28:58;;;;;;;1.40;1.17;;;;;13.60;102460.00;;;;5074947;28;20229;-76
2021/03/07 11:31:25;;;;;;;1.73;1.15;;;;;13.60;102468.00;;;;5077458;28;20195;-77
2021/03/07 11:33:52;;;;;;;2.35;0.60;;;;;13.60;102462.00;;;;5088949;28;20205;-76
2021/03/07 11:36:18;;;;;;;2.38;0.70;;;;;13.50;102465.00;;;;5087894;28;20194;-75
2021/03/07 11:38:45;;;;;;;1.40;1.00;;;;;13.50;102464.00;;;;5070262;28;20284;-76
2021/03/07 11:41:12;;;;;;;1.88;0.90;;;;;13.50;102458.00;;;;5078699;28;20202;-76
2021/03/07 11:43:39;;;;;;;0.68;0.55;;;;;13.50;102458.00;;;;5081863;28;20190;-76
2021/03/07 11:46:06;;;;;;;1.40;0.77;;;;;13.50;102456.00;;;;5089460;28;20218;-76
2021/03/07 11:48:33;;;;;;;1.73;0.90;;;;;13.60;102456.00;;;;5086733;28;20198;-76
2021/03/07 11:51:00;;;;;;;2.25;1.13;;;;;13.60;102449.00;;;;5080803;28;20205;-75
2021/03/07 11:53:27;;;;;;;1.40;1.00;;;;;13.60;102441.00;;;;5070057;28;20218;-76
2021/03/07 11:55:53;;;;;;;1.55;1.25;;;;;13.70;102433.00;;;;5084281;28;20199;-76
2021/03/07 11:58:20;;;;;;;2.47;1.42;;;;;13.80;102447.00;;;;5078733;28;20217;-78
2021/03/07 12:00:47;;;;;;;1.70;1.45;;;;;13.80;102427.00;;;;5085378;28;20248;-77
2021/03/07 12:03:15;;;;;;;1.58;1.23;;;;;13.80;102438.00;;;;5071269;28;20191;-76
2021/03/07 12:05:42;;;;;;;1.95;1.30;;;;;13.80;102434.00;;;;5072817;28;20199;-76
2021/03/07 12:08:09;;;;;;;1.15;1.00;;;;;13.70;102426.00;;;;5071957;28;20202;-77
2021/03/07 12:10:36;;;;;;;1.70;1.15;;;;;13.70;102431.00;;;;5074267;28;20643;-76
2021/03/07 12:13:03;;;;;;;1.88;1.27;;;;;13.60;102431.00;;;;5073914;28;20691;-77
2021/03/07 12:15:30;;;;;;;2.40;1.15;;;;;13.60;102416.00;;;;5076527;28;20198;-77
2021/03/07 12:17:56;;;;;;;1.95;1.25;;;;;13.60;102415.00;;;;5073400;28;20226;-77
2021/03/07 12:20:24;;;;;;;2.20;1.45;;;;;13.60;102416.00;;;;5073292;28;20251;-78
2021/03/07 12:22:51;;;;;;;2.60;1.60;;;;;13.60;102413.00;;;;5077619;28;20208;-78